sensor_id;sensor_type;location;lat;lon;timestamp;P1;durP1;ratioP1;P2;durP2;ratioP2
44862;SDS011;30597;49.628;10.850;2023-12-14T00:01:31;2.50;;;2.30;;
44862;SDS011;30597;49.628;10.850;2023-12-14T00:03:57;2.47;;;2.27;;
44862;SDS011;30597;49.628;10.850;2023-12-14T00:06:22;2.50;;;2.30;;
44862;SDS011;30597;49.628;10.850;2023-12-14T00:08:48;2.67;;;2.47;;
44862;SDS011;30597;49.628;10.850;2023-12-14T00:11:13;2.57;;;2.37;;
44862;SDS011;30597;49.628;10.850;2023-12-14T00:13:39;2.73;;;2.13;;
44862;SDS011;30597;49.628;10.850;2023-12-14T00:16:05;1.80;;;1.70;;
44862;SDS011;30597;49.628;10.850;2023-12-14T00:18:31;2.60;;;2.40;;
44862;SDS011;30597;49.628;10.850;2023-12-14T00:20:56;2.60;;;2.40;;
44862;SDS011;30597;49.628;10.850;2023-12-14T00:23:22;2.17;;;1.97;;
44862;SDS011;30597;49.628;10.850;2023-12-14T00:25:49;2.40;;;2.20;;
44862;SDS011;30597;49.628;10.850;2023-12-14T00:28:15;2.23;;;2.13;;
44862;SDS011;30597;49.628;10.850;2023-12-14T00:30:41;2.27;;;2.07;;
44862;SDS011;30597;49.628;10.850;2023-12-14T00:33:07;2.33;;;2.13;;
44862;SDS011;30597;49.628;10.850;2023-12-14T00:35:33;2.27;;;2.03;;
44862;SDS011;30597;49.628;10.850;2023-12-14T00:37:59;2.17;;;2.03;;
44862;SDS011;30597;49.628;10.850;2023-12-14T00:40:24;2.47;;;2.27;;
44862;SDS011;30597;49.628;10.850;2023-12-14T00:42:50;2.00;;;1.90;;
44862;SDS011;30597;49.628;10.850;2023-12-14T00:45:16;2.43;;;2.23;;
44862;SDS011;30597;49.628;10.850;2023-12-14T00:47:41;2.20;;;2.00;;
44862;SDS011;30597;49.628;10.850;2023-12-14T00:50:07;1.90;;;1.80;;
44862;SDS011;30597;49.628;10.850;2023-12-14T00:52:33;2.20;;;2.00;;
44862;SDS011;30597;49.628;10.850;2023-12-14T00:54:58;2.50;;;2.17;;
44862;SDS011;30597;49.628;10.850;2023-12-14T00:57:24;2.73;;;2.53;;
44862;SDS011;30597;49.628;10.850;2023-12-14T00:59:50;1.83;;;1.70;;
44862;SDS011;30597;49.628;10.850;2023-12-14T01:02:15;2.33;;;2.10;;
44862;SDS011;30597;49.628;10.850;2023-12-14T01:04:41;1.87;;;1.77;;
44862;SDS011;30597;49.628;10.850;2023-12-14T01:07:07;2.20;;;2.00;;
44862;SDS011;30597;49.628;10.850;2023-12-14T01:09:33;2.40;;;2.20;;
44862;SDS011;30597;49.628;10.850;2023-12-14T01:11:58;2.03;;;1.93;;
44862;SDS011;30597;49.628;10.850;2023-12-14T01:14:24;2.40;;;2.20;;
44862;SDS011;30597;49.628;10.850;2023-12-14T01:16:49;2.40;;;2.20;;
44862;SDS011;30597;49.628;10.850;2023-12-14T01:19:15;2.30;;;2.10;;
44862;SDS011;30597;49.628;10.850;2023-12-14T01:21:40;2.60;;;2.40;;
44862;SDS011;30597;49.628;10.850;2023-12-14T01:24:06;2.50;;;2.30;;
44862;SDS011;30597;49.628;10.850;2023-12-14T01:26:31;2.23;;;2.13;;
44862;SDS011;30597;49.628;10.850;2023-12-14T01:28:57;2.13;;;1.93;;
44862;SDS011;30597;49.628;10.850;2023-12-14T01:31:24;2.03;;;1.87;;
44862;SDS011;30597;49.628;10.850;2023-12-14T01:33:50;2.20;;;2.00;;
44862;SDS011;30597;49.628;10.850;2023-12-14T01:36:22;2.47;;;2.13;;
44862;SDS011;30597;49.628;10.850;2023-12-14T01:38:49;1.83;;;1.73;;
44862;SDS011;30597;49.628;10.850;2023-12-14T01:41:15;2.20;;;2.00;;
44862;SDS011;30597;49.628;10.850;2023-12-14T01:43:41;2.50;;;2.30;;
44862;SDS011;30597;49.628;10.850;2023-12-14T01:46:06;2.20;;;2.00;;
44862;SDS011;30597;49.628;10.850;2023-12-14T01:48:32;2.03;;;1.93;;
44862;SDS011;30597;49.628;10.850;2023-12-14T01:50:57;1.77;;;1.60;;
44862;SDS011;30597;49.628;10.850;2023-12-14T01:53:23;2.00;;;1.80;;
44862;SDS011;30597;49.628;10.850;2023-12-14T01:55:48;2.00;;;1.80;;
44862;SDS011;30597;49.628;10.850;2023-12-14T01:58:14;2.30;;;2.10;;
44862;SDS011;30597;49.628;10.850;2023-12-14T02:00:42;2.23;;;2.13;;
44862;SDS011;30597;49.628;10.850;2023-12-14T02:03:25;2.03;;;1.90;;
44862;SDS011;30597;49.628;10.850;2023-12-14T02:05:51;2.00;;;1.90;;
44862;SDS011;30597;49.628;10.850;2023-12-14T02:08:16;2.30;;;2.17;;
44862;SDS011;30597;49.628;10.850;2023-12-14T02:10:42;2.63;;;2.07;;
44862;SDS011;30597;49.628;10.850;2023-12-14T02:13:07;2.10;;;1.97;;
44862;SDS011;30597;49.628;10.850;2023-12-14T02:15:33;2.00;;;1.90;;
44862;SDS011;30597;49.628;10.850;2023-12-14T02:17:58;1.70;;;1.60;;
44862;SDS011;30597;49.628;10.850;2023-12-14T02:20:24;2.10;;;2.00;;
44862;SDS011;30597;49.628;10.850;2023-12-14T02:22:55;2.30;;;2.07;;
44862;SDS011;30597;49.628;10.850;2023-12-14T02:25:22;2.40;;;2.10;;
44862;SDS011;30597;49.628;10.850;2023-12-14T02:27:48;1.97;;;1.87;;
44862;SDS011;30597;49.628;10.850;2023-12-14T02:30:16;1.63;;;1.53;;
44862;SDS011;30597;49.628;10.850;2023-12-14T02:32:42;1.80;;;1.70;;
44862;SDS011;30597;49.628;10.850;2023-12-14T02:35:07;1.73;;;1.63;;
44862;SDS011;30597;49.628;10.850;2023-12-14T02:37:34;2.00;;;1.80;;
44862;SDS011;30597;49.628;10.850;2023-12-14T02:40:02;1.83;;;1.63;;
44862;SDS011;30597;49.628;10.850;2023-12-14T02:42:30;1.83;;;1.67;;
44862;SDS011;30597;49.628;10.850;2023-12-14T02:44:56;1.90;;;1.80;;
44862;SDS011;30597;49.628;10.850;2023-12-14T02:47:21;2.03;;;1.90;;
44862;SDS011;30597;49.628;10.850;2023-12-14T02:49:47;2.53;;;1.80;;
44862;SDS011;30597;49.628;10.850;2023-12-14T02:52:13;1.87;;;1.73;;
44862;SDS011;30597;49.628;10.850;2023-12-14T02:54:39;1.70;;;1.60;;
44862;SDS011;30597;49.628;10.850;2023-12-14T02:57:05;1.80;;;1.70;;
44862;SDS011;30597;49.628;10.850;2023-12-14T02:59:31;1.80;;;1.70;;
44862;SDS011;30597;49.628;10.850;2023-12-14T03:01:56;2.13;;;1.80;;
44862;SDS011;30597;49.628;10.850;2023-12-14T03:04:22;1.40;;;1.23;;
44862;SDS011;30597;49.628;10.850;2023-12-14T03:06:47;2.50;;;1.60;;
44862;SDS011;30597;49.628;10.850;2023-12-14T03:09:13;2.40;;;1.90;;
44862;SDS011;30597;49.628;10.850;2023-12-14T03:11:39;1.50;;;1.40;;
44862;SDS011;30597;49.628;10.850;2023-12-14T03:14:04;1.60;;;1.50;;
44862;SDS011;30597;49.628;10.850;2023-12-14T03:16:30;1.73;;;1.60;;
44862;SDS011;30597;49.628;10.850;2023-12-14T03:18:55;1.77;;;1.40;;
44862;SDS011;30597;49.628;10.850;2023-12-14T03:21:22;1.73;;;1.60;;
44862;SDS011;30597;49.628;10.850;2023-12-14T03:23:48;1.70;;;1.60;;
44862;SDS011;30597;49.628;10.850;2023-12-14T03:26:14;1.50;;;1.40;;
44862;SDS011;30597;49.628;10.850;2023-12-14T03:28:40;1.90;;;1.70;;
44862;SDS011;30597;49.628;10.850;2023-12-14T03:31:06;1.60;;;1.50;;
44862;SDS011;30597;49.628;10.850;2023-12-14T03:33:31;1.47;;;1.37;;
44862;SDS011;30597;49.628;10.850;2023-12-14T03:35:57;1.80;;;1.70;;
44862;SDS011;30597;49.628;10.850;2023-12-14T03:38:23;1.50;;;1.40;;
44862;SDS011;30597;49.628;10.850;2023-12-14T03:40:49;1.53;;;1.43;;
44862;SDS011;30597;49.628;10.850;2023-12-14T03:43:15;1.57;;;1.47;;
44862;SDS011;30597;49.628;10.850;2023-12-14T03:45:40;2.10;;;1.57;;
44862;SDS011;30597;49.628;10.850;2023-12-14T03:48:06;1.40;;;1.30;;
44862;SDS011;30597;49.628;10.850;2023-12-14T03:50:31;1.33;;;1.23;;
44862;SDS011;30597;49.628;10.850;2023-12-14T03:52:58;1.80;;;1.70;;
44862;SDS011;30597;49.628;10.850;2023-12-14T03:55:23;1.70;;;1.60;;
44862;SDS011;30597;49.628;10.850;2023-12-14T03:57:49;1.77;;;1.67;;
44862;SDS011;30597;49.628;10.850;2023-12-14T04:00:15;1.77;;;1.67;;
44862;SDS011;30597;49.628;10.850;2023-12-14T04:02:41;1.43;;;1.33;;
44862;SDS011;30597;49.628;10.850;2023-12-14T04:05:07;2.43;;;1.87;;
44862;SDS011;30597;49.628;10.850;2023-12-14T04:07:39;1.80;;;1.70;;
44862;SDS011;30597;49.628;10.850;2023-12-14T04:10:14;1.47;;;1.37;;
44862;SDS011;30597;49.628;10.850;2023-12-14T04:12:40;1.50;;;1.40;;
44862;SDS011;30597;49.628;10.850;2023-12-14T04:15:07;1.23;;;1.13;;
44862;SDS011;30597;49.628;10.850;2023-12-14T04:17:34;1.93;;;1.83;;
44862;SDS011;30597;49.628;10.850;2023-12-14T04:20:00;1.50;;;1.40;;
44862;SDS011;30597;49.628;10.850;2023-12-14T04:22:27;2.03;;;1.87;;
44862;SDS011;30597;49.628;10.850;2023-12-14T04:24:53;1.70;;;1.60;;
44862;SDS011;30597;49.628;10.850;2023-12-14T04:27:19;1.40;;;1.30;;
44862;SDS011;30597;49.628;10.850;2023-12-14T04:29:45;1.63;;;1.53;;
44862;SDS011;30597;49.628;10.850;2023-12-14T04:32:11;1.50;;;1.40;;
44862;SDS011;30597;49.628;10.850;2023-12-14T04:34:36;1.67;;;1.30;;
44862;SDS011;30597;49.628;10.850;2023-12-14T04:37:02;2.00;;;1.90;;
44862;SDS011;30597;49.628;10.850;2023-12-14T04:39:27;1.50;;;1.37;;
44862;SDS011;30597;49.628;10.850;2023-12-14T04:41:53;1.30;;;1.20;;
44862;SDS011;30597;49.628;10.850;2023-12-14T04:44:19;1.50;;;1.40;;
44862;SDS011;30597;49.628;10.850;2023-12-14T04:46:46;1.53;;;1.30;;
44862;SDS011;30597;49.628;10.850;2023-12-14T04:49:12;1.40;;;1.30;;
44862;SDS011;30597;49.628;10.850;2023-12-14T04:51:37;1.33;;;1.23;;
44862;SDS011;30597;49.628;10.850;2023-12-14T04:54:03;1.83;;;1.73;;
44862;SDS011;30597;49.628;10.850;2023-12-14T04:56:29;1.50;;;1.40;;
44862;SDS011;30597;49.628;10.850;2023-12-14T04:58:54;1.63;;;1.53;;
44862;SDS011;30597;49.628;10.850;2023-12-14T05:01:20;1.30;;;1.20;;
44862;SDS011;30597;49.628;10.850;2023-12-14T05:03:45;1.33;;;1.23;;
44862;SDS011;30597;49.628;10.850;2023-12-14T05:06:11;1.50;;;1.40;;
44862;SDS011;30597;49.628;10.850;2023-12-14T05:08:36;1.47;;;1.27;;
44862;SDS011;30597;49.628;10.850;2023-12-14T05:11:02;1.47;;;1.37;;
44862;SDS011;30597;49.628;10.850;2023-12-14T05:13:29;1.53;;;1.43;;
44862;SDS011;30597;49.628;10.850;2023-12-14T05:15:55;1.20;;;1.03;;
44862;SDS011;30597;49.628;10.850;2023-12-14T05:18:22;1.43;;;1.33;;
44862;SDS011;30597;49.628;10.850;2023-12-14T05:20:48;1.47;;;1.37;;
44862;SDS011;30597;49.628;10.850;2023-12-14T05:23:14;1.40;;;1.30;;
44862;SDS011;30597;49.628;10.850;2023-12-14T05:25:40;1.90;;;1.80;;
44862;SDS011;30597;49.628;10.850;2023-12-14T05:28:05;1.60;;;1.40;;
44862;SDS011;30597;49.628;10.850;2023-12-14T05:30:31;1.57;;;1.40;;
44862;SDS011;30597;49.628;10.850;2023-12-14T05:32:57;1.50;;;1.40;;
44862;SDS011;30597;49.628;10.850;2023-12-14T05:35:22;1.27;;;1.20;;
44862;SDS011;30597;49.628;10.850;2023-12-14T05:37:48;1.40;;;1.30;;
44862;SDS011;30597;49.628;10.850;2023-12-14T05:40:13;1.23;;;1.13;;
44862;SDS011;30597;49.628;10.850;2023-12-14T05:42:39;1.20;;;1.10;;
44862;SDS011;30597;49.628;10.850;2023-12-14T05:45:05;1.70;;;1.30;;
44862;SDS011;30597;49.628;10.850;2023-12-14T05:47:31;1.40;;;1.30;;
44862;SDS011;30597;49.628;10.850;2023-12-14T05:49:59;1.63;;;1.53;;
44862;SDS011;30597;49.628;10.850;2023-12-14T05:52:24;1.83;;;1.60;;
44862;SDS011;30597;49.628;10.850;2023-12-14T05:54:50;1.30;;;1.20;;
44862;SDS011;30597;49.628;10.850;2023-12-14T05:57:15;1.50;;;1.40;;
44862;SDS011;30597;49.628;10.850;2023-12-14T05:59:41;1.10;;;1.10;;
44862;SDS011;30597;49.628;10.850;2023-12-14T06:02:06;1.30;;;1.20;;
44862;SDS011;30597;49.628;10.850;2023-12-14T06:04:32;1.27;;;1.17;;
44862;SDS011;30597;49.628;10.850;2023-12-14T06:06:57;1.63;;;1.53;;
44862;SDS011;30597;49.628;10.850;2023-12-14T06:09:23;1.30;;;1.20;;
44862;SDS011;30597;49.628;10.850;2023-12-14T06:11:57;1.37;;;1.27;;
44862;SDS011;30597;49.628;10.850;2023-12-14T06:14:22;1.60;;;1.50;;
44862;SDS011;30597;49.628;10.850;2023-12-14T06:16:48;1.73;;;1.40;;
44862;SDS011;30597;49.628;10.850;2023-12-14T06:19:13;1.23;;;1.13;;
44862;SDS011;30597;49.628;10.850;2023-12-14T06:21:39;1.50;;;1.40;;
44862;SDS011;30597;49.628;10.850;2023-12-14T06:24:05;1.20;;;1.10;;
44862;SDS011;30597;49.628;10.850;2023-12-14T06:26:31;1.60;;;1.50;;
44862;SDS011;30597;49.628;10.850;2023-12-14T06:28:56;1.23;;;1.13;;
44862;SDS011;30597;49.628;10.850;2023-12-14T06:31:22;1.07;;;0.97;;
44862;SDS011;30597;49.628;10.850;2023-12-14T06:33:48;1.27;;;1.17;;
44862;SDS011;30597;49.628;10.850;2023-12-14T06:36:15;1.10;;;1.00;;
44862;SDS011;30597;49.628;10.850;2023-12-14T06:38:44;1.43;;;1.33;;
44862;SDS011;30597;49.628;10.850;2023-12-14T06:41:19;1.40;;;1.27;;
44862;SDS011;30597;49.628;10.850;2023-12-14T06:43:46;1.40;;;1.30;;
44862;SDS011;30597;49.628;10.850;2023-12-14T06:46:11;1.43;;;1.37;;
44862;SDS011;30597;49.628;10.850;2023-12-14T06:48:37;1.90;;;1.40;;
44862;SDS011;30597;49.628;10.850;2023-12-14T06:51:02;1.77;;;1.50;;
44862;SDS011;30597;49.628;10.850;2023-12-14T06:53:28;1.33;;;1.23;;
44862;SDS011;30597;49.628;10.850;2023-12-14T06:55:54;1.93;;;1.63;;
44862;SDS011;30597;49.628;10.850;2023-12-14T06:58:20;1.47;;;1.37;;
44862;SDS011;30597;49.628;10.850;2023-12-14T07:00:46;1.60;;;1.50;;
44862;SDS011;30597;49.628;10.850;2023-12-14T07:03:12;1.63;;;1.53;;
44862;SDS011;30597;49.628;10.850;2023-12-14T07:05:39;1.77;;;1.67;;
44862;SDS011;30597;49.628;10.850;2023-12-14T07:08:05;1.47;;;1.33;;
44862;SDS011;30597;49.628;10.850;2023-12-14T07:10:30;1.63;;;1.53;;
44862;SDS011;30597;49.628;10.850;2023-12-14T07:12:56;1.90;;;1.80;;
44862;SDS011;30597;49.628;10.850;2023-12-14T07:15:22;1.97;;;1.80;;
44862;SDS011;30597;49.628;10.850;2023-12-14T07:17:47;1.90;;;1.80;;
44862;SDS011;30597;49.628;10.850;2023-12-14T07:20:13;1.77;;;1.67;;
44862;SDS011;30597;49.628;10.850;2023-12-14T07:22:38;1.40;;;1.30;;
44862;SDS011;30597;49.628;10.850;2023-12-14T07:25:04;1.70;;;1.60;;
44862;SDS011;30597;49.628;10.850;2023-12-14T07:27:30;2.30;;;2.10;;
44862;SDS011;30597;49.628;10.850;2023-12-14T07:29:55;1.80;;;1.70;;
44862;SDS011;30597;49.628;10.850;2023-12-14T07:32:21;1.60;;;1.50;;
44862;SDS011;30597;49.628;10.850;2023-12-14T07:34:47;2.30;;;2.10;;
44862;SDS011;30597;49.628;10.850;2023-12-14T07:37:12;2.27;;;2.07;;
44862;SDS011;30597;49.628;10.850;2023-12-14T07:39:38;2.20;;;2.00;;
44862;SDS011;30597;49.628;10.850;2023-12-14T07:42:04;1.80;;;1.70;;
44862;SDS011;30597;49.628;10.850;2023-12-14T07:44:30;2.03;;;1.83;;
44862;SDS011;30597;49.628;10.850;2023-12-14T07:46:56;2.10;;;1.90;;
44862;SDS011;30597;49.628;10.850;2023-12-14T07:49:23;2.43;;;1.93;;
44862;SDS011;30597;49.628;10.850;2023-12-14T07:51:49;2.20;;;2.10;;
44862;SDS011;30597;49.628;10.850;2023-12-14T07:54:15;2.87;;;2.03;;
44862;SDS011;30597;49.628;10.850;2023-12-14T07:56:40;2.20;;;2.03;;
44862;SDS011;30597;49.628;10.850;2023-12-14T07:59:06;2.40;;;2.20;;
44862;SDS011;30597;49.628;10.850;2023-12-14T08:01:33;2.13;;;1.93;;
44862;SDS011;30597;49.628;10.850;2023-12-14T08:03:59;2.20;;;2.00;;
44862;SDS011;30597;49.628;10.850;2023-12-14T08:06:25;2.10;;;1.90;;
44862;SDS011;30597;49.628;10.850;2023-12-14T08:08:50;3.10;;;2.60;;
44862;SDS011;30597;49.628;10.850;2023-12-14T08:11:16;2.23;;;2.03;;
44862;SDS011;30597;49.628;10.850;2023-12-14T08:13:41;2.90;;;2.60;;
44862;SDS011;30597;49.628;10.850;2023-12-14T08:16:07;1.87;;;1.77;;
44862;SDS011;30597;49.628;10.850;2023-12-14T08:18:33;2.60;;;2.40;;
44862;SDS011;30597;49.628;10.850;2023-12-14T08:21:00;1.93;;;1.83;;
44862;SDS011;30597;49.628;10.850;2023-12-14T08:23:26;2.70;;;2.10;;
44862;SDS011;30597;49.628;10.850;2023-12-14T08:25:55;2.40;;;2.20;;
44862;SDS011;30597;49.628;10.850;2023-12-14T08:28:24;2.03;;;1.83;;
44862;SDS011;30597;49.628;10.850;2023-12-14T08:30:50;2.17;;;2.03;;
44862;SDS011;30597;49.628;10.850;2023-12-14T08:33:16;2.47;;;2.27;;
44862;SDS011;30597;49.628;10.850;2023-12-14T08:35:42;2.13;;;1.93;;
44862;SDS011;30597;49.628;10.850;2023-12-14T08:38:07;3.00;;;2.33;;
44862;SDS011;30597;49.628;10.850;2023-12-14T08:40:33;2.33;;;2.20;;
44862;SDS011;30597;49.628;10.850;2023-12-14T08:42:58;2.10;;;2.00;;
44862;SDS011;30597;49.628;10.850;2023-12-14T08:45:24;2.00;;;1.90;;
44862;SDS011;30597;49.628;10.850;2023-12-14T08:47:49;2.30;;;2.10;;
44862;SDS011;30597;49.628;10.850;2023-12-14T08:50:15;3.33;;;2.00;;
44862;SDS011;30597;49.628;10.850;2023-12-14T08:52:41;2.17;;;2.00;;
44862;SDS011;30597;49.628;10.850;2023-12-14T08:55:07;2.40;;;2.20;;
44862;SDS011;30597;49.628;10.850;2023-12-14T08:57:33;2.07;;;1.97;;
44862;SDS011;30597;49.628;10.850;2023-12-14T08:59:59;2.40;;;2.03;;
44862;SDS011;30597;49.628;10.850;2023-12-14T09:02:24;2.63;;;2.33;;
44862;SDS011;30597;49.628;10.850;2023-12-14T09:04:50;2.17;;;1.93;;
44862;SDS011;30597;49.628;10.850;2023-12-14T09:07:16;2.60;;;2.40;;
44862;SDS011;30597;49.628;10.850;2023-12-14T09:09:42;2.90;;;2.70;;
44862;SDS011;30597;49.628;10.850;2023-12-14T09:12:08;2.80;;;2.60;;
44862;SDS011;30597;49.628;10.850;2023-12-14T09:14:34;3.00;;;2.80;;
44862;SDS011;30597;49.628;10.850;2023-12-14T09:17:00;2.87;;;2.67;;
44862;SDS011;30597;49.628;10.850;2023-12-14T09:19:25;2.93;;;2.67;;
44862;SDS011;30597;49.628;10.850;2023-12-14T09:21:51;2.60;;;2.40;;
44862;SDS011;30597;49.628;10.850;2023-12-14T09:24:16;2.70;;;2.50;;
44862;SDS011;30597;49.628;10.850;2023-12-14T09:26:43;2.50;;;2.30;;
44862;SDS011;30597;49.628;10.850;2023-12-14T09:29:09;4.93;;;3.47;;
44862;SDS011;30597;49.628;10.850;2023-12-14T09:31:34;4.07;;;3.10;;
44862;SDS011;30597;49.628;10.850;2023-12-14T09:34:00;3.10;;;2.63;;
44862;SDS011;30597;49.628;10.850;2023-12-14T09:36:26;3.13;;;2.93;;
44862;SDS011;30597;49.628;10.850;2023-12-14T09:38:51;3.27;;;2.97;;
44862;SDS011;30597;49.628;10.850;2023-12-14T09:41:17;3.40;;;3.20;;
44862;SDS011;30597;49.628;10.850;2023-12-14T09:43:43;3.53;;;3.30;;
44862;SDS011;30597;49.628;10.850;2023-12-14T09:46:10;5.63;;;3.50;;
44862;SDS011;30597;49.628;10.850;2023-12-14T09:48:36;3.03;;;2.77;;
44862;SDS011;30597;49.628;10.850;2023-12-14T09:51:02;3.20;;;2.90;;
44862;SDS011;30597;49.628;10.850;2023-12-14T09:53:28;3.20;;;2.90;;
44862;SDS011;30597;49.628;10.850;2023-12-14T09:55:53;5.50;;;3.50;;
44862;SDS011;30597;49.628;10.850;2023-12-14T09:58:19;5.17;;;3.13;;
44862;SDS011;30597;49.628;10.850;2023-12-14T10:00:44;3.20;;;2.80;;
44862;SDS011;30597;49.628;10.850;2023-12-14T10:05:45;3.50;;;3.20;;
44862;SDS011;30597;49.628;10.850;2023-12-14T10:08:11;4.50;;;3.53;;
44862;SDS011;30597;49.628;10.850;2023-12-14T10:10:37;3.23;;;3.03;;
44862;SDS011;30597;49.628;10.850;2023-12-14T10:13:02;4.30;;;3.40;;
44862;SDS011;30597;49.628;10.850;2023-12-14T10:15:28;5.80;;;3.70;;
44862;SDS011;30597;49.628;10.850;2023-12-14T10:17:54;5.50;;;3.27;;
44862;SDS011;30597;49.628;10.850;2023-12-14T10:20:22;3.60;;;3.30;;
44862;SDS011;30597;49.628;10.850;2023-12-14T10:22:48;5.13;;;2.93;;
44862;SDS011;30597;49.628;10.850;2023-12-14T10:25:15;3.63;;;3.33;;
44862;SDS011;30597;49.628;10.850;2023-12-14T10:27:42;3.43;;;3.13;;
44862;SDS011;30597;49.628;10.850;2023-12-14T10:30:20;4.93;;;3.30;;
44862;SDS011;30597;49.628;10.850;2023-12-14T10:32:47;3.67;;;3.10;;
44862;SDS011;30597;49.628;10.850;2023-12-14T10:35:14;3.87;;;3.50;;
44862;SDS011;30597;49.628;10.850;2023-12-14T10:37:41;5.53;;;2.83;;
44862;SDS011;30597;49.628;10.850;2023-12-14T10:40:08;3.33;;;2.70;;
44862;SDS011;30597;49.628;10.850;2023-12-14T10:42:37;3.90;;;3.27;;
44862;SDS011;30597;49.628;10.850;2023-12-14T10:45:06;3.90;;;3.50;;
44862;SDS011;30597;49.628;10.850;2023-12-14T10:47:34;4.43;;;2.83;;
44862;SDS011;30597;49.628;10.850;2023-12-14T10:50:00;3.40;;;2.93;;
44862;SDS011;30597;49.628;10.850;2023-12-14T10:52:26;3.90;;;3.50;;
44862;SDS011;30597;49.628;10.850;2023-12-14T10:54:56;5.07;;;3.40;;
44862;SDS011;30597;49.628;10.850;2023-12-14T10:57:27;3.60;;;2.90;;
44862;SDS011;30597;49.628;10.850;2023-12-14T11:00:00;3.67;;;2.63;;
44862;SDS011;30597;49.628;10.850;2023-12-14T11:02:27;3.00;;;2.80;;
44862;SDS011;30597;49.628;10.850;2023-12-14T11:07:50;3.50;;;3.20;;
44862;SDS011;30597;49.628;10.850;2023-12-14T11:10:23;2.90;;;2.60;;
44862;SDS011;30597;49.628;10.850;2023-12-14T11:13:02;4.17;;;3.67;;
44862;SDS011;30597;49.628;10.850;2023-12-14T11:15:33;2.87;;;2.67;;
44862;SDS011;30597;49.628;10.850;2023-12-14T11:23:16;3.50;;;3.20;;
44862;SDS011;30597;49.628;10.850;2023-12-14T11:25:51;4.23;;;3.63;;
44862;SDS011;30597;49.628;10.850;2023-12-14T11:28:18;4.10;;;3.00;;
44862;SDS011;30597;49.628;10.850;2023-12-14T11:30:44;5.37;;;3.73;;
44862;SDS011;30597;49.628;10.850;2023-12-14T11:33:11;3.83;;;3.30;;
44862;SDS011;30597;49.628;10.850;2023-12-14T11:35:38;3.40;;;2.73;;
44862;SDS011;30597;49.628;10.850;2023-12-14T11:38:03;5.47;;;3.17;;
44862;SDS011;30597;49.628;10.850;2023-12-14T11:40:35;3.90;;;3.27;;
44862;SDS011;30597;49.628;10.850;2023-12-14T11:43:02;3.40;;;3.10;;
44862;SDS011;30597;49.628;10.850;2023-12-14T11:45:32;4.03;;;3.50;;
44862;SDS011;30597;49.628;10.850;2023-12-14T11:47:58;4.53;;;3.47;;
44862;SDS011;30597;49.628;10.850;2023-12-14T11:50:24;3.50;;;3.20;;
44862;SDS011;30597;49.628;10.850;2023-12-14T11:52:52;4.17;;;2.87;;
44862;SDS011;30597;49.628;10.850;2023-12-14T11:55:18;4.57;;;3.40;;
44862;SDS011;30597;49.628;10.850;2023-12-14T11:57:46;4.47;;;3.30;;
44862;SDS011;30597;49.628;10.850;2023-12-14T12:00:12;4.97;;;3.40;;
44862;SDS011;30597;49.628;10.850;2023-12-14T12:02:39;5.07;;;3.60;;
44862;SDS011;30597;49.628;10.850;2023-12-14T12:05:05;5.67;;;3.40;;
44862;SDS011;30597;49.628;10.850;2023-12-14T12:07:32;4.33;;;3.67;;
44862;SDS011;30597;49.628;10.850;2023-12-14T12:09:58;4.07;;;3.77;;
44862;SDS011;30597;49.628;10.850;2023-12-14T12:12:24;3.37;;;3.07;;
44862;SDS011;30597;49.628;10.850;2023-12-14T12:14:50;4.30;;;3.10;;
44862;SDS011;30597;49.628;10.850;2023-12-14T12:17:17;4.20;;;3.80;;
44862;SDS011;30597;49.628;10.850;2023-12-14T12:19:44;5.47;;;3.90;;
44862;SDS011;30597;49.628;10.850;2023-12-14T12:22:10;4.50;;;3.80;;
44862;SDS011;30597;49.628;10.850;2023-12-14T12:24:36;4.37;;;3.93;;
44862;SDS011;30597;49.628;10.850;2023-12-14T12:27:02;3.47;;;3.17;;
44862;SDS011;30597;49.628;10.850;2023-12-14T12:29:29;3.90;;;3.50;;
44862;SDS011;30597;49.628;10.850;2023-12-14T12:31:55;4.13;;;3.70;;
44862;SDS011;30597;49.628;10.850;2023-12-14T12:34:20;5.80;;;3.20;;
44862;SDS011;30597;49.628;10.850;2023-12-14T12:36:46;3.60;;;3.30;;
44862;SDS011;30597;49.628;10.850;2023-12-14T12:39:12;5.67;;;3.77;;
44862;SDS011;30597;49.628;10.850;2023-12-14T12:41:37;4.07;;;3.20;;
44862;SDS011;30597;49.628;10.850;2023-12-14T12:44:03;6.07;;;3.60;;
44862;SDS011;30597;49.628;10.850;2023-12-14T12:46:37;4.60;;;3.60;;
44862;SDS011;30597;49.628;10.850;2023-12-14T12:49:03;6.33;;;3.60;;
44862;SDS011;30597;49.628;10.850;2023-12-14T12:51:30;4.10;;;3.63;;
44862;SDS011;30597;49.628;10.850;2023-12-14T12:53:57;4.07;;;3.70;;
44862;SDS011;30597;49.628;10.850;2023-12-14T12:56:23;2.90;;;2.70;;
44862;SDS011;30597;49.628;10.850;2023-12-14T12:58:50;3.60;;;3.30;;
44862;SDS011;30597;49.628;10.850;2023-12-14T13:01:18;3.70;;;3.40;;
44862;SDS011;30597;49.628;10.850;2023-12-14T13:03:51;3.30;;;3.00;;
44862;SDS011;30597;49.628;10.850;2023-12-14T13:06:18;3.60;;;3.23;;
44862;SDS011;30597;49.628;10.850;2023-12-14T13:08:43;4.50;;;3.53;;
44862;SDS011;30597;49.628;10.850;2023-12-14T13:11:09;3.77;;;3.23;;
44862;SDS011;30597;49.628;10.850;2023-12-14T13:13:34;4.20;;;3.87;;
44862;SDS011;30597;49.628;10.850;2023-12-14T13:16:00;3.60;;;3.30;;
44862;SDS011;30597;49.628;10.850;2023-12-14T13:18:25;4.57;;;3.20;;
44862;SDS011;30597;49.628;10.850;2023-12-14T13:20:51;4.80;;;4.33;;
44862;SDS011;30597;49.628;10.850;2023-12-14T13:23:16;3.40;;;3.00;;
44862;SDS011;30597;49.628;10.850;2023-12-14T13:25:42;3.27;;;3.07;;
44862;SDS011;30597;49.628;10.850;2023-12-14T13:28:09;4.77;;;3.37;;
44862;SDS011;30597;49.628;10.850;2023-12-14T13:30:35;4.10;;;3.37;;
44862;SDS011;30597;49.628;10.850;2023-12-14T13:33:01;3.43;;;3.13;;
44862;SDS011;30597;49.628;10.850;2023-12-14T13:35:27;3.60;;;3.30;;
44862;SDS011;30597;49.628;10.850;2023-12-14T13:37:53;4.33;;;3.37;;
44862;SDS011;30597;49.628;10.850;2023-12-14T13:40:19;3.40;;;3.10;;
44862;SDS011;30597;49.628;10.850;2023-12-14T13:42:44;4.17;;;3.87;;
44862;SDS011;30597;49.628;10.850;2023-12-14T13:45:10;4.10;;;3.70;;
44862;SDS011;30597;49.628;10.850;2023-12-14T13:47:36;5.03;;;4.20;;
44862;SDS011;30597;49.628;10.850;2023-12-14T13:50:01;4.00;;;3.60;;
44862;SDS011;30597;49.628;10.850;2023-12-14T13:52:29;3.57;;;3.27;;
44862;SDS011;30597;49.628;10.850;2023-12-14T13:54:55;4.30;;;3.40;;
44862;SDS011;30597;49.628;10.850;2023-12-14T13:57:21;4.20;;;3.70;;
44862;SDS011;30597;49.628;10.850;2023-12-14T13:59:47;4.83;;;3.73;;
44862;SDS011;30597;49.628;10.850;2023-12-14T14:02:12;3.43;;;3.20;;
44862;SDS011;30597;49.628;10.850;2023-12-14T14:04:38;3.90;;;3.50;;
44862;SDS011;30597;49.628;10.850;2023-12-14T14:07:04;3.70;;;3.40;;
44862;SDS011;30597;49.628;10.850;2023-12-14T14:09:29;4.00;;;3.60;;
44862;SDS011;30597;49.628;10.850;2023-12-14T14:11:55;3.77;;;3.47;;
44862;SDS011;30597;49.628;10.850;2023-12-14T14:14:21;4.67;;;4.10;;
44862;SDS011;30597;49.628;10.850;2023-12-14T14:16:48;4.20;;;3.77;;
44862;SDS011;30597;49.628;10.850;2023-12-14T14:19:13;4.20;;;3.90;;
44862;SDS011;30597;49.628;10.850;2023-12-14T14:21:39;4.10;;;3.80;;
44862;SDS011;30597;49.628;10.850;2023-12-14T14:24:05;4.83;;;3.97;;
44862;SDS011;30597;49.628;10.850;2023-12-14T14:26:31;3.67;;;3.33;;
44862;SDS011;30597;49.628;10.850;2023-12-14T14:28:56;4.50;;;4.10;;
44862;SDS011;30597;49.628;10.850;2023-12-14T14:31:26;4.20;;;3.80;;
44862;SDS011;30597;49.628;10.850;2023-12-14T14:33:57;4.87;;;3.60;;
44862;SDS011;30597;49.628;10.850;2023-12-14T14:36:24;4.13;;;3.80;;
44862;SDS011;30597;49.628;10.850;2023-12-14T14:38:50;4.17;;;3.87;;